Time;durP1;ratioP1;P1;durP2;ratioP2;P2;SDS_P1;SDS_P2;PMS_P1;PMS_P2;Temp;Humidity;BMP_temperature;BMP_pressure;BME280_temperature;BME280_humidity;BME280_pressure;Samples;Min_cycle;Max_cycle;Signal;HPM_P1;HPM_P2
2022/08/25 00:00:03;;;;;;;8.38;4.82;;;;;;;20.39;100.00;101809.56;10388296;28;20049;-73
2022/08/25 00:05:04;;;;;;;6.65;4.85;;;;;;;20.28;100.00;101806.06;10361781;28;20037;-73
2022/08/25 00:10:05;;;;;;;7.80;4.90;;;;;;;20.13;100.00;101789.47;10410476;28;20057;-73
2022/08/25 00:15:08;;;;;;;6.47;5.05;;;;;;;20.07;100.00;101790.66;10359226;28;20473;-73
2022/08/25 00:20:09;;;;;;;8.48;4.82;;;;;;;20.00;100.00;101791.00;10369940;28;20042;-74
2022/08/25 00:25:11;;;;;;;7.43;4.18;;;;;;;19.98;100.00;101801.66;10372290;28;20038;-73
2022/08/25 00:30:13;;;;;;;5.72;4.28;;;;;;;19.92;100.00;101794.44;10371609;28;20049;-73
2022/08/25 00:35:14;;;;;;;7.45;3.75;;;;;;;19.92;100.00;101805.63;10370114;28;20038;-73
2022/08/25 00:40:15;;;;;;;8.40;3.92;;;;;;;19.86;100.00;101802.03;10329132;28;20049;-73
2022/08/25 00:45:16;;;;;;;7.40;3.90;;;;;;;19.70;100.00;101786.50;10330342;28;20046;-73
2022/08/25 00:50:16;;;;;;;10.02;3.55;;;;;;;19.75;100.00;101800.47;10347531;28;20041;-73
2022/08/25 00:55:22;;;;;;;5.93;4.03;;;;;;;19.71;100.00;101796.59;10329534;28;20041;-73
2022/08/25 01:00:29;;;;;;;6.45;3.60;;;;;;;19.21;100.00;101723.31;10344715;28;20038;-73
2022/08/25 01:05:30;;;;;;;5.25;3.40;;;;;;;19.57;100.00;101796.41;10361701;28;20037;-73
2022/08/25 01:10:30;;;;;;;12.57;3.88;;;;;;;19.48;100.00;101804.59;10401704;28;20033;-72
2022/08/25 01:15:31;;;;;;;6.30;4.32;;;;;;;19.45;100.00;101796.81;10354326;28;20541;-73
2022/08/25 01:20:33;;;;;;;8.23;4.95;;;;;;;19.52;100.00;101813.22;10378087;28;20080;-73
2022/08/25 01:26:01;;;;;;;9.63;4.55;;;;;;;19.45;100.00;101808.00;10394984;28;20034;-73
2022/08/25 01:31:02;;;;;;;5.63;4.75;;;;;;;19.47;100.00;101805.72;10322307;28;20042;-72
2022/08/25 01:36:04;;;;;;;7.75;5.03;;;;;;;19.42;100.00;101800.19;10320823;28;20037;-73
2022/08/25 01:41:04;;;;;;;7.72;5.13;;;;;;;19.47;100.00;101805.72;10352171;28;20454;-73
2022/08/25 01:46:05;;;;;;;6.53;4.85;;;;;;;19.41;100.00;101804.09;10335688;28;20120;-74
2022/08/25 01:51:06;;;;;;;6.28;4.90;;;;;;;19.39;100.00;101809.16;10336572;28;20034;-73
2022/08/25 01:56:10;;;;;;;6.95;4.60;;;;;;;19.28;100.00;101796.38;10335454;28;20062;-73
2022/08/25 02:01:19;;;;;;;7.95;4.40;;;;;;;19.29;100.00;101829.59;10318918;28;20466;-72
2022/08/25 02:06:22;;;;;;;7.00;4.78;;;;;;;19.20;100.00;101802.56;10335468;28;20041;-73
2022/08/25 02:11:23;;;;;;;7.97;5.47;;;;;;;19.14;100.00;101797.03;10318911;28;20046;-73
2022/08/25 02:16:27;;;;;;;7.10;4.55;;;;;;;19.07;100.00;101790.13;10334672;28;20038;-73
2022/08/25 02:21:27;;;;;;;10.55;4.85;;;;;;;19.03;100.00;101803.81;10356171;28;20069;-73
2022/08/25 02:26:28;;;;;;;8.75;5.13;;;;;;;18.93;100.00;101795.50;10374954;28;20041;-72
2022/08/25 02:31:28;;;;;;;9.65;5.43;;;;;;;18.83;100.00;101787.19;10391639;28;20030;-73
2022/08/25 02:36:30;;;;;;;9.38;6.45;;;;;;;18.81;100.00;101800.59;10359548;28;20107;-73
2022/08/25 02:41:32;;;;;;;6.65;6.03;;;;;;;18.74;100.00;101798.91;10371050;28;20038;-72
2022/08/25 02:46:33;;;;;;;7.88;6.22;;;;;;;18.69;100.00;101790.59;10374410;28;20049;-73
2022/08/25 02:51:33;;;;;;;12.07;6.53;;;;;;;18.69;100.00;101795.34;10358205;28;20037;-74
2022/08/25 02:56:34;;;;;;;7.88;6.00;;;;;;;18.69;100.00;101801.75;10374587;28;20128;-73
2022/08/25 03:01:34;;;;;;;9.65;5.82;;;;;;;18.65;100.00;101795.06;10349817;28;20039;-72
2022/08/25 03:06:35;;;;;;;9.95;5.63;;;;;;;18.61;100.00;101791.19;10349828;28;20497;-73
2022/08/25 03:11:37;;;;;;;11.00;5.78;;;;;;;18.60;100.00;101788.69;10371149;28;20034;-73
2022/08/25 03:16:37;;;;;;;7.75;6.40;;;;;;;18.55;100.00;101795.13;10334819;28;20063;-73
2022/08/25 03:21:38;;;;;;;10.20;6.30;;;;;;;18.43;100.00;101791.81;10332207;28;20073;-73
2022/08/25 03:26:54;;;;;;;12.07;7.63;;;;;;;18.40;100.00;101786.81;10299276;28;20054;-73
2022/08/25 03:31:56;;;;;;;10.90;6.70;;;;;;;18.42;100.00;101798.50;10356119;28;20034;-73
2022/08/25 03:36:57;;;;;;;13.15;7.55;;;;;;;18.27;100.00;101777.97;10373194;28;20080;-73
2022/08/25 03:41:58;;;;;;;9.35;6.25;;;;;;;18.34;100.00;101788.81;10373206;28;20109;-73
2022/08/25 03:46:58;;;;;;;7.97;6.20;;;;;;;17.52;100.00;101680.34;10377911;28;20065;-73
2022/08/25 03:52:00;;;;;;;11.23;7.30;;;;;;;18.14;100.00;101767.41;10372361;28;20029;-73
2022/08/25 03:57:01;;;;;;;10.40;7.25;;;;;;;18.13;100.00;101776.91;10356185;28;20034;-73
2022/08/25 04:02:01;;;;;;;10.43;7.60;;;;;;;18.05;100.00;101766.31;10389278;28;20033;-72
2022/08/25 04:07:02;;;;;;;11.00;7.28;;;;;;;18.02;100.00;101769.66;10364249;28;20042;-72
2022/08/25 04:12:03;;;;;;;13.52;8.82;;;;;;;17.95;100.00;101764.41;10371737;28;20065;-72
2022/08/25 04:17:03;;;;;;;14.18;8.07;;;;;;;17.97;100.00;101778.88;10371669;28;20176;-70
2022/08/25 04:22:04;;;;;;;13.70;9.68;;;;;;;17.47;100.00;101714.59;10373815;28;20049;-73
2022/08/25 04:27:04;;;;;;;17.40;8.90;;;;;;;17.89;100.00;101766.34;10370060;28;20037;-73
2022/08/25 04:32:05;;;;;;;13.88;8.50;;;;;;;17.88;100.00;101772.19;10350946;28;20048;-72
2022/08/25 04:37:06;;;;;;;8.90;7.38;;;;;;;17.74;100.00;101746.88;10333209;28;20510;-73
2022/08/25 04:42:07;;;;;;;12.10;7.40;;;;;;;17.86;100.00;101782.78;10372882;28;20046;-72
2022/08/25 04:47:08;;;;;;;12.95;6.97;;;;;;;17.83;100.00;101773.03;10362877;28;20065;-72
2022/08/25 04:52:09;;;;;;;11.52;7.30;;;;;;;17.83;100.00;101772.22;10378727;28;20045;-73
2022/08/25 04:57:09;;;;;;;14.15;7.72;;;;;;;17.76;100.00;101747.41;10395237;28;20041;-73
2022/08/25 05:02:10;;;;;;;12.98;6.93;;;;;;;17.82;100.00;101753.78;10366555;28;20048;-72
2022/08/25 05:07:10;;;;;;;10.85;7.55;;;;;;;17.83;100.00;101738.78;10421058;28;20050;-72
2022/08/25 05:12:12;;;;;;;14.23;8.27;;;;;;;17.85;100.00;101740.19;10420163;28;20044;-72
2022/08/25 05:17:13;;;;;;;12.32;7.78;;;;;;;17.88;100.00;101736.84;10418860;28;20038;-72
2022/08/25 05:22:14;;;;;;;13.57;8.27;;;;;;;17.97;100.00;101744.63;10435527;28;20095;-73
2022/08/25 05:27:14;;;;;;;13.45;7.97;;;;;;;18.04;100.00;101750.72;10416572;28;20087;-73
2022/08/25 05:32:15;;;;;;;15.98;8.77;;;;;;;18.12;100.00;101747.34;10417602;28;20037;-73
2022/08/25 05:37:15;;;;;;;11.23;7.65;;;;;;;18.15;100.00;101741.22;10417796;28;20037;-73
2022/08/25 05:42:15;;;;;;;12.63;8.55;;;;;;;18.20;100.00;101743.97;10420054;28;20045;-73
2022/08/25 05:47:16;;;;;;;11.73;8.55;;;;;;;18.41;100.00;101755.03;10417651;28;20073;-72
2022/08/25 05:52:17;;;;;;;12.90;9.57;;;;;;;18.60;100.00;101756.03;10417357;28;20037;-72
2022/08/25 05:57:17;;;;;;;16.88;9.07;;;;;;;18.99;100.00;101766.44;10377317;28;20045;-72
2022/08/25 06:07:36;;;;;;;13.10;9.40;;;;;;;19.61;100.00;101749.19;10419743;28;20068;-73
2022/08/25 06:12:37;;;;;;;13.10;9.35;;;;;;;19.87;100.00;101753.41;10434242;28;20497;-72
2022/08/25 06:17:40;;;;;;;12.82;8.40;;;;;;;20.10;100.00;101746.16;10416076;28;20090;-72
2022/08/25 06:22:40;;;;;;;15.73;9.10;;;;;;;20.40;100.00;101748.88;10350721;28;20041;-72
2022/08/25 06:27:41;;;;;;;14.88;8.75;;;;;;;20.66;100.00;101747.44;10346829;28;20049;-73
2022/08/25 06:32:42;;;;;;;15.30;7.65;;;;;;;20.87;100.00;101747.97;10376341;28;20038;-72
2022/08/25 06:37:43;;;;;;;11.77;7.75;;;;;;;21.10;100.00;101736.97;10340660;28;20038;-71
2022/08/25 06:42:47;;;;;;;13.52;7.50;;;;;;;21.37;100.00;101750.25;10357095;28;20030;-72
2022/08/25 06:47:47;;;;;;;11.02;6.20;;;;;;;21.61;100.00;101738.09;10358534;28;20046;-72
2022/08/25 06:52:48;;;;;;;12.23;6.85;;;;;;;21.89;100.00;101737.00;10364673;28;20064;-72
2022/08/25 06:57:52;;;;;;;14.38;7.10;;;;;;;22.10;100.00;101731.00;10356461;28;20029;-73
2022/08/25 07:02:52;;;;;;;10.45;7.05;;;;;;;22.16;100.00;101701.69;10368353;28;20122;-72
2022/08/25 07:07:53;;;;;;;10.35;5.90;;;;;;;22.38;100.00;101714.16;10370776;28;20056;-72
2022/08/25 07:12:53;;;;;;;11.55;6.43;;;;;;;22.60;100.00;101719.81;10372762;28;20038;-74
2022/08/25 07:17:54;;;;;;;8.38;6.00;;;;;;;22.82;100.00;101732.22;10353960;28;20067;-72
2022/08/25 07:22:54;;;;;;;16.80;6.70;;;;;;;22.89;100.00;101718.59;10337793;28;20041;-72
2022/08/25 07:27:55;;;;;;;10.50;6.15;;;;;;;22.97;100.00;101715.84;10371508;28;20053;-72
2022/08/25 07:32:55;;;;;;;7.68;5.50;;;;;;;23.13;100.00;101727.59;10371383;28;20045;-73
2022/08/25 07:37:56;;;;;;;7.57;5.47;;;;;;;23.36;100.00;101736.00;10414955;28;20060;-73
2022/08/25 07:43:02;;;;;;;6.60;4.88;;;;;;;23.60;100.00;101729.19;10430859;28;20129;-73
2022/08/25 07:48:07;;;;;;;10.43;5.60;;;;;;;23.77;100.00;101712.44;10412742;28;20045;-73
2022/08/25 07:53:08;;;;;;;5.43;4.80;;;;;;;24.01;100.00;101722.47;10355555;28;20047;-74
2022/08/25 07:58:09;;;;;;;8.65;5.78;;;;;;;24.20;100.00;101730.63;10319444;28;20046;-73
2022/08/25 08:03:09;;;;;;;9.05;4.93;;;;;;;24.36;100.00;101734.66;10331001;28;20046;-72
2022/08/25 08:08:10;;;;;;;12.07;5.35;;;;;;;24.35;100.00;101719.75;10369482;28;20038;-73
2022/08/25 08:13:11;;;;;;;8.77;5.22;;;;;;;24.65;99.78;101733.25;10366472;28;20095;-73
2022/08/25 08:18:11;;;;;;;10.63;5.30;;;;;;;24.91;98.80;101733.28;10371664;28;20045;-73
2022/08/25 08:23:12;;;;;;;6.40;4.72;;;;;;;25.11;96.50;101726.94;10336306;28;20042;-72
2022/08/25 08:28:13;;;;;;;10.38;5.28;;;;;;;25.30;96.01;101728.59;10333635;28;20038;-73
2022/08/25 08:33:13;;;;;;;11.93;4.97;;;;;;;25.52;96.01;101725.56;10348482;28;20061;-73
2022/08/25 08:38:14;;;;;;;9.23;5.50;;;;;;;25.49;94.34;101674.69;10333755;28;20435;-73
2022/08/25 08:43:15;;;;;;;7.43;5.05;;;;;;;25.98;93.81;101714.63;10347726;28;20042;-71
2022/08/25 08:48:31;;;;;;;8.25;5.35;;;;;;;26.33;92.18;101714.44;10336850;28;20042;-73
2022/08/25 08:53:51;;;;;;;12.68;5.15;;;;;;;26.62;90.79;101710.78;10386047;28;20109;-74
2022/08/25 08:58:55;;;;;;;8.68;5.03;;;;;;;26.68;88.78;101700.94;10373349;28;20030;-71
2022/08/25 09:04:30;;;;;;;8.80;4.80;;;;;;;26.75;89.04;101652.41;10378657;28;20058;-73
2022/08/25 09:09:32;;;;;;;8.52;4.68;;;;;;;27.33;89.33;101684.41;10438466;28;20041;-74
2022/08/25 09:14:53;;;;;;;7.38;5.03;;;;;;;27.51;84.92;101667.22;10441586;28;20099;-73
2022/08/25 09:20:37;;;;;;;8.60;4.53;;;;;;;27.56;84.90;101669.84;10439561;28;20075;-74
2022/08/25 09:25:48;;;;;;;15.35;5.00;;;;;;;27.78;82.15;101658.09;10446900;28;20599;-74
2022/08/25 09:31:07;;;;;;;9.02;5.28;;;;;;;27.98;80.89;101653.50;10447076;28;20519;-74
2022/08/25 09:36:07;;;;;;;9.48;4.25;;;;;;;28.16;80.92;101641.94;10449649;28;20049;-74
2022/08/25 09:41:10;;;;;;;5.63;4.88;;;;;;;28.33;79.59;101630.31;10446039;28;20055;-74
2022/08/25 09:46:11;;;;;;;8.18;4.35;;;;;;;28.58;77.38;101624.59;10446781;28;20048;-74
2022/08/25 09:51:32;;;;;;;7.75;4.28;;;;;;;28.85;76.90;101619.31;10449165;28;20055;-74
2022/08/25 09:56:33;;;;;;;6.82;4.32;;;;;;;28.93;74.52;101589.97;10446272;28;20033;-74
2022/08/25 10:01:33;;;;;;;12.52;4.38;;;;;;;29.15;72.80;101586.56;10430752;28;20033;-75
2022/08/25 10:06:44;;;;;;;10.18;3.58;;;;;;;29.20;72.97;101576.97;10420260;28;20083;-75
2022/08/25 10:11:46;;;;;;;7.63;3.50;;;;;;;29.34;69.57;101563.16;10416837;28;20041;-76
2022/08/25 10:16:47;;;;;;;5.78;4.10;;;;;;;29.55;70.73;101582.69;10403872;28;20044;-76
2022/08/25 10:22:02;;;;;;;4.03;2.70;;;;;;;29.84;69.61;101569.22;10420950;28;20037;-75
2022/08/25 10:27:35;;;;;;;7.40;3.10;;;;;;;29.91;67.77;101566.56;10391591;28;20060;-75
2022/08/25 10:32:41;;;;;;;7.50;3.63;;;;;;;30.00;66.53;101548.50;10398383;28;20096;-75
2022/08/25 10:37:53;;;;;;;;;;;;;;;30.23;67.47;101538.06;10413448;28;20068;-75
2022/08/25 10:43:09;;;;;;;6.00;3.78;;;;;;;30.55;67.21;101518.00;10413555;28;19944;-77
2022/08/25 10:48:28;;;;;;;;;;;;;;;30.70;64.68;101505.75;10423312;28;20057;-75
2022/08/25 10:54:03;;;;;;;9.88;4.05;;;;;;;30.88;63.90;101493.88;10434196;28;19932;-77
2022/08/25 10:59:30;;;;;;;7.90;3.50;;;;;;;30.91;62.86;101490.31;10394067;28;20049;-76
2022/08/25 11:04:37;;;;;;;3.70;2.50;;;;;;;31.06;59.39;101472.28;10348844;28;20054;-77
2022/08/25 11:09:39;;;;;;;;;;;;;;;31.36;59.27;101480.06;10302148;28;20132;-76
2022/08/25 11:14:48;;;;;;;8.55;2.60;;;;;;;31.49;56.34;101466.47;10388724;28;19922;-76
2022/08/25 11:19:54;;;;;;;4.40;2.50;;;;;;;31.36;54.60;101460.16;10372308;28;20040;-78
2022/08/25 11:25:04;;;;;;;4.97;2.80;;;;;;;31.53;56.11;101465.31;10358098;28;20041;-75
2022/08/25 11:30:12;;;;;;;5.20;2.35;;;;;;;31.53;54.89;101445.38;10349428;28;20069;-75
2022/08/25 11:35:13;;;;;;;4.43;2.67;;;;;;;31.80;54.60;101442.50;10357115;28;20038;-76
2022/08/25 11:40:30;;;;;;;6.00;2.53;;;;;;;32.08;53.99;101444.94;10336018;28;20109;-75
2022/08/25 11:46:00;;;;;;;7.60;3.63;;;;;;;32.08;53.09;101436.38;10372898;28;20041;-75
2022/08/25 11:51:06;;;;;;;4.35;3.25;;;;;;;32.16;53.28;101445.81;10390140;28;20157;-75
2022/08/25 11:56:34;;;;;;;6.13;3.47;;;;;;;32.34;51.85;101443.16;10409659;28;20129;-85
2022/08/25 12:01:37;;;;;;;8.18;3.60;;;;;;;32.99;50.76;101421.78;10356257;28;20102;-75
2022/08/25 12:07:09;;;;;;;9.82;2.90;;;;;;;33.97;49.09;101412.59;10373042;28;20038;-78
2022/08/25 12:12:54;;;;;;;5.45;2.65;;;;;;;34.75;48.86;101417.69;10374439;28;20046;-76
2022/08/25 12:18:15;;;;;;;8.00;2.87;;;;;;;35.16;44.05;101391.53;10348754;28;20503;-77
2022/08/25 12:23:15;;;;;;;3.50;2.72;;;;;;;35.57;43.55;101385.22;10355181;28;20106;-75
2022/08/25 12:28:25;;;;;;;6.70;2.63;;;;;;;36.11;43.19;101398.50;10363536;28;20046;-76
2022/08/25 12:33:48;;;;;;;4.30;2.63;;;;;;;36.45;42.68;101407.31;10412192;28;20044;-77
2022/08/25 12:38:48;;;;;;;5.75;3.30;;;;;;;36.38;40.25;101369.28;10412784;28;20037;-75
2022/08/25 12:43:50;;;;;;;4.30;2.72;;;;;;;36.73;40.87;101388.28;10396420;28;20672;-76
2022/08/25 12:49:19;;;;;;;6.65;3.30;;;;;;;36.93;39.18;101380.69;10395789;28;20065;-77
2022/08/25 12:54:35;;;;;;;4.95;3.13;;;;;;;37.16;38.82;101377.19;10419300;28;20046;-77
2022/08/25 12:59:40;;;;;;;7.13;3.42;;;;;;;37.32;38.54;101367.19;10378269;28;20058;-76
2022/08/25 13:04:59;;;;;;;3.67;2.97;;;;;;;37.45;38.51;101371.13;10378050;28;20053;-77
2022/08/25 13:10:02;;;;;;;5.15;3.17;;;;;;;37.59;37.30;101357.88;10380901;28;20046;-77
2022/08/25 13:15:03;;;;;;;7.90;3.50;;;;;;;37.51;38.39;101357.13;10340642;28;20121;-77
2022/08/25 13:20:30;;;;;;;5.70;3.05;;;;;;;37.33;37.52;101351.59;10353890;28;20061;-76
2022/08/25 13:25:32;;;;;;;4.07;3.25;;;;;;;37.77;37.06;101341.22;10362091;28;20050;-78
2022/08/25 13:30:33;;;;;;;11.35;3.60;;;;;;;37.61;35.64;101326.66;10338736;28;20046;-77
2022/08/25 13:35:34;;;;;;;4.90;3.38;;;;;;;37.92;37.02;101319.63;10338047;28;20054;-78
2022/08/25 13:40:35;;;;;;;10.60;4.28;;;;;;;37.84;36.26;101323.84;10337963;28;20039;-78
2022/08/25 13:45:43;;;;;;;5.47;3.55;;;;;;;37.67;36.18;101313.44;10352368;28;20093;-80
2022/08/25 13:50:44;;;;;;;6.50;3.40;;;;;;;37.72;36.10;101310.06;10375666;28;20402;-78
2022/08/25 13:55:44;;;;;;;7.28;3.47;;;;;;;37.53;33.73;101295.13;10397416;28;20048;-79
2022/08/25 14:00:58;;;;;;;6.27;2.97;;;;;;;37.44;33.60;101285.41;10417455;28;20041;-78
2022/08/25 14:06:05;;;;;;;5.10;3.25;;;;;;;37.72;34.61;101292.84;10434552;28;20284;-76
2022/08/25 14:11:09;;;;;;;3.00;2.70;;;;;;;38.14;32.95;101271.28;10418669;28;20052;-77
2022/08/25 14:16:21;;;;;;;6.63;3.20;;;;;;;38.15;33.47;101263.47;10389718;28;20053;-78
2022/08/25 14:21:24;;;;;;;5.25;2.80;;;;;;;38.62;32.98;101262.66;10321433;28;20030;-79
2022/08/25 14:26:25;;;;;;;7.03;2.72;;;;;;;38.88;33.68;101270.34;10362984;28;20052;-78
2022/08/25 14:31:28;;;;;;;3.72;3.00;;;;;;;38.66;31.64;101251.91;10400594;28;20029;-78
2022/08/25 14:36:29;;;;;;;5.03;2.92;;;;;;;38.42;32.90;101259.72;10393153;28;20444;-77
2022/08/25 14:41:30;;;;;;;5.35;2.97;;;;;;;38.27;32.56;101245.59;10375516;28;20049;-77
2022/08/25 14:46:34;;;;;;;7.45;3.00;;;;;;;38.14;33.29;101250.31;10359655;28;20076;-80
2022/08/25 14:51:34;;;;;;;6.30;3.00;;;;;;;38.15;33.38;101252.75;10413523;28;20038;-79
2022/08/25 14:56:35;;;;;;;6.10;3.20;;;;;;;37.99;33.61;101243.16;10414561;28;20033;-77
2022/08/25 15:01:35;;;;;;;10.55;3.55;;;;;;;38.11;33.54;101225.34;10414300;28;20037;-76
2022/08/25 15:06:36;;;;;;;5.90;2.80;;;;;;;38.27;32.26;101231.22;10412538;28;20038;-77
2022/08/25 15:11:41;;;;;;;5.28;3.00;;;;;;;38.29;32.58;101217.19;10414594;28;20034;-77
2022/08/25 15:16:52;;;;;;;6.45;3.10;;;;;;;38.45;32.93;101227.19;10394973;28;20218;-77
2022/08/25 15:21:53;;;;;;;6.65;3.83;;;;;;;38.49;32.71;101225.03;10393608;28;20048;-77
2022/08/25 15:26:58;;;;;;;10.57;3.63;;;;;;;38.83;33.16;101215.38;10354358;28;20049;-77
2022/08/25 15:31:59;;;;;;;4.38;3.35;;;;;;;38.93;33.43;101208.59;10395794;28;20107;-77
2022/08/25 15:37:10;;;;;;;6.50;3.97;;;;;;;39.39;33.14;101217.50;10413519;28;20059;-76
2022/08/25 15:42:11;;;;;;;7.55;3.28;;;;;;;39.39;32.60;101198.13;10409546;28;20043;-78
2022/08/25 15:47:11;;;;;;;8.18;3.58;;;;;;;39.30;32.73;101203.69;10394271;28;20485;-77
2022/08/25 15:52:12;;;;;;;5.80;3.30;;;;;;;38.98;33.28;101205.22;10393939;28;20049;-76
2022/08/25 15:57:12;;;;;;;6.13;4.00;;;;;;;38.75;33.73;101208.97;10391896;28;20042;-76
2022/08/25 16:02:13;;;;;;;5.93;3.72;;;;;;;38.13;34.36;101197.75;10347284;28;20506;-76
2022/08/25 16:07:13;;;;;;;7.72;3.78;;;;;;;37.71;34.96;101197.22;10347042;28;20264;-75
2022/08/25 16:12:14;;;;;;;5.63;3.78;;;;;;;36.22;36.59;101194.94;10332946;28;20042;-77
2022/08/25 16:17:14;;;;;;;5.65;3.88;;;;;;;34.86;38.63;101206.00;10330837;28;20026;-77
2022/08/25 16:22:15;;;;;;;7.70;3.70;;;;;;;33.82;41.03;101222.41;10344601;28;20035;-74
2022/08/25 16:27:16;;;;;;;10.10;4.10;;;;;;;32.85;43.31;101228.59;10347812;28;20441;-75
2022/08/25 16:32:17;;;;;;;9.13;3.75;;;;;;;32.34;43.74;101230.28;10386115;28;20033;-74
2022/08/25 16:37:18;;;;;;;8.65;3.80;;;;;;;31.33;45.47;101167.91;10395757;28;20198;-74
2022/08/25 16:42:19;;;;;;;5.70;4.05;;;;;;;31.17;45.38;101194.56;10387716;28;20046;-74
2022/08/25 16:47:19;;;;;;;6.07;4.07;;;;;;;31.09;46.42;101209.91;10415208;28;20426;-75
2022/08/25 16:57:44;;;;;;;6.97;4.20;;;;;;;30.41;47.62;101208.09;10385124;28;20040;-73
2022/08/25 17:02:45;;;;;;;5.65;3.63;;;;;;;30.34;49.16;101235.19;10401231;28;20417;-74
2022/08/25 17:08:27;;;;;;;8.00;4.38;;;;;;;30.15;50.92;101223.91;10407643;28;20034;-73
2022/08/25 17:13:06;;;;;;;9.43;4.28;;;;;;;29.96;50.70;101234.13;10344815;28;20041;-77
2022/08/25 17:18:07;;;;;;;9.23;4.40;;;;;;;29.69;53.17;101232.41;10351480;28;20054;-77
2022/08/25 17:23:07;;;;;;;9.77;4.63;;;;;;;29.60;53.68;101231.81;10351823;28;20038;-77
2022/08/25 17:28:08;;;;;;;6.05;4.47;;;;;;;29.31;54.48;101231.25;10354548;28;20046;-77
2022/08/25 17:33:08;;;;;;;6.80;5.20;;;;;;;29.25;56.49;101249.75;10354620;28;20034;-77
2022/08/25 17:38:09;;;;;;;7.30;4.32;;;;;;;29.07;57.10;101249.38;10348189;28;20420;-77
2022/08/25 17:43:09;;;;;;;6.85;4.70;;;;;;;28.82;58.65;101249.63;10350702;28;20097;-77
2022/08/25 17:48:11;;;;;;;8.23;4.93;;;;;;;28.52;59.77;101255.00;10338018;28;20046;-77
2022/08/25 17:53:12;;;;;;;11.30;5.05;;;;;;;28.24;60.99;101250.28;10336857;28;20057;-77
2022/08/25 17:58:13;;;;;;;8.32;4.57;;;;;;;28.02;63.60;101273.56;10362517;28;20045;-76
2022/08/25 18:03:14;;;;;;;7.28;4.50;;;;;;;27.85;66.30;101286.81;10356672;28;20061;-76
2022/08/25 18:08:16;;;;;;;7.80;5.07;;;;;;;27.52;68.95;101279.44;10337214;28;20045;-76
2022/08/25 18:13:17;;;;;;;12.63;5.53;;;;;;;27.27;71.64;101301.34;10370769;28;20065;-78
2022/08/25 18:18:18;;;;;;;8.90;5.38;;;;;;;27.00;73.77;101297.28;10375957;28;20045;-76
2022/08/25 18:23:18;;;;;;;14.60;5.65;;;;;;;26.62;75.60;101284.34;10373236;28;20089;-77
2022/08/25 18:28:19;;;;;;;9.13;6.05;;;;;;;26.49;76.49;101299.63;10353824;28;20049;-77
2022/08/25 18:33:20;;;;;;;13.93;5.88;;;;;;;26.23;78.06;101291.50;10367912;28;20038;-77
2022/08/25 18:43:39;;;;;;;8.48;6.25;;;;;;;25.88;81.07;101303.16;10390272;28;20042;-76
2022/08/25 18:48:40;;;;;;;8.85;6.50;;;;;;;25.71;81.91;101304.97;10374877;28;20030;-74
2022/08/25 18:53:40;;;;;;;7.88;6.30;;;;;;;25.29;83.83;101265.59;10389931;28;20026;-76
2022/08/25 18:58:41;;;;;;;8.48;6.40;;;;;;;25.25;85.55;101294.81;10431357;28;20440;-75
2022/08/25 19:03:42;;;;;;;8.45;5.93;;;;;;;25.09;88.05;101301.03;10417807;28;20042;-76
2022/08/25 19:08:43;;;;;;;8.45;6.13;;;;;;;24.93;90.33;101300.00;10376093;28;20042;-76
2022/08/25 19:13:44;;;;;;;8.25;5.68;;;;;;;24.59;92.62;101282.16;10401896;28;20053;-76
2022/08/25 19:18:45;;;;;;;8.75;5.97;;;;;;;24.44;94.65;101279.91;10412751;28;20072;-77
2022/08/25 19:23:45;;;;;;;13.32;5.88;;;;;;;24.54;97.70;101319.78;10390167;28;20034;-75
2022/08/25 19:28:46;;;;;;;8.32;5.80;;;;;;;24.42;98.16;101316.00;10387489;28;20084;-75
2022/08/25 19:33:47;;;;;;;13.30;6.70;;;;;;;24.40;100.00;101326.78;10409181;28;20069;-70
2022/08/25 19:38:49;;;;;;;15.85;6.60;;;;;;;24.28;100.00;101328.28;10372789;28;20553;-71
2022/08/25 19:43:50;;;;;;;14.07;6.28;;;;;;;23.77;100.00;101263.44;10354061;28;20053;-75
2022/08/25 19:48:50;;;;;;;10.88;6.55;;;;;;;24.00;100.00;101329.84;10347507;28;20038;-76
2022/08/25 19:53:51;;;;;;;12.05;6.50;;;;;;;23.86;100.00;101336.50;10331344;28;20071;-77
2022/08/25 19:58:51;;;;;;;9.43;6.63;;;;;;;23.77;100.00;101332.88;10345941;28;20045;-77
2022/08/25 20:03:52;;;;;;;7.78;5.90;;;;;;;23.72;100.00;101333.84;10347950;28;20066;-77
2022/08/25 20:08:52;;;;;;;14.35;7.35;;;;;;;23.68;100.00;101332.03;10331698;28;21734;-77
2022/08/25 20:13:53;;;;;;;11.43;6.90;;;;;;;23.55;100.00;101314.22;10363037;28;20049;-77
2022/08/25 20:18:53;;;;;;;12.07;8.00;;;;;;;23.60;100.00;101318.81;10357017;28;20058;-77
2022/08/25 20:29:13;;;;;;;15.63;7.45;;;;;;;23.55;100.00;101314.22;10384243;28;20046;-76
2022/08/25 20:34:14;;;;;;;14.70;9.00;;;;;;;23.42;100.00;101301.16;10389460;28;20037;-78
2022/08/25 20:39:14;;;;;;;13.93;8.63;;;;;;;23.32;100.00;101311.56;10372634;28;20034;-78
2022/08/25 20:44:15;;;;;;;9.02;7.85;;;;;;;23.28;100.00;101323.81;10393338;28;20037;-75
2022/08/25 20:49:16;;;;;;;35.50;10.05;;;;;;;23.13;100.00;101334.38;10357581;28;20046;-75
2022/08/25 20:54:16;;;;;;;12.57;7.97;;;;;;;22.91;100.00;101320.44;10386860;28;20033;-75
2022/08/25 20:59:17;;;;;;;14.05;9.05;;;;;;;22.91;100.00;101332.47;10384971;28;20053;-76
2022/08/25 21:04:20;;;;;;;10.98;7.60;;;;;;;22.63;100.00;101308.63;10380732;28;20427;-77
2022/08/25 21:09:21;;;;;;;12.55;8.45;;;;;;;22.63;100.00;101336.69;10390444;28;20042;-77
2022/08/25 21:14:22;;;;;;;11.30;9.45;;;;;;;22.50;100.00;101324.44;10378411;28;20425;-75
2022/08/25 21:19:24;;;;;;;14.10;9.98;;;;;;;22.40;100.00;101327.53;10386999;28;20038;-76
2022/08/25 21:24:24;;;;;;;10.48;8.10;;;;;;;22.35;100.00;101326.53;10405988;28;20038;-76
2022/08/25 21:29:26;;;;;;;12.63;9.15;;;;;;;22.22;100.00;101321.81;10398626;28;20029;-72
2022/08/25 21:34:26;;;;;;;16.25;9.55;;;;;;;22.15;100.00;101324.25;10404983;28;20201;-70
2022/08/25 21:39:28;;;;;;;14.85;9.38;;;;;;;22.12;100.00;101339.75;10379452;28;20169;-76
2022/08/25 21:44:29;;;;;;;12.00;9.88;;;;;;;22.03;100.00;101340.84;10377141;28;20293;-76
2022/08/25 21:49:29;;;;;;;18.55;9.75;;;;;;;21.94;100.00;101344.41;10390166;28;20045;-76
2022/08/25 21:54:30;;;;;;;13.13;9.98;;;;;;;21.94;100.00;101343.59;10389910;28;20253;-76
2022/08/25 21:59:32;;;;;;;19.08;10.13;;;;;;;21.81;100.00;101330.47;10373778;28;20034;-76
2022/08/25 22:04:33;;;;;;;14.63;9.55;;;;;;;21.68;100.00;101326.59;10388985;28;20046;-76
2022/08/25 22:09:34;;;;;;;16.67;10.25;;;;;;;21.71;100.00;101328.78;10390145;28;20235;-76
2022/08/25 22:14:35;;;;;;;19.23;10.65;;;;;;;21.65;100.00;101324.44;10392973;28;20045;-75
2022/08/25 22:19:35;;;;;;;15.45;10.02;;;;;;;21.55;100.00;101326.34;10395385;28;20034;-76
2022/08/25 22:24:36;;;;;;;17.63;9.93;;;;;;;21.44;100.00;101319.34;10385826;28;20037;-75
2022/08/25 22:29:37;;;;;;;14.80;9.90;;;;;;;21.43;100.00;101314.88;10396613;28;20042;-75
2022/08/25 22:34:37;;;;;;;16.08;10.43;;;;;;;21.41;100.00;101319.91;10399030;28;20034;-75
2022/08/25 22:39:38;;;;;;;16.20;10.60;;;;;;;21.33;100.00;101321.53;10376988;28;20030;-70
2022/08/25 22:44:39;;;;;;;14.38;10.80;;;;;;;21.39;100.00;101332.59;10391869;28;20042;-76
2022/08/25 22:49:39;;;;;;;13.85;11.65;;;;;;;21.33;100.00;101323.47;10391295;28;20117;-76
2022/08/25 22:54:40;;;;;;;18.38;10.80;;;;;;;21.28;100.00;101318.00;10391465;28;20042;-75
2022/08/25 22:59:40;;;;;;;19.15;12.50;;;;;;;21.21;100.00;101326.00;10399067;28;20516;-75
2022/08/25 23:04:41;;;;;;;16.25;12.05;;;;;;;21.06;100.00;101330.81;10376920;28;20038;-76
2022/08/25 23:09:41;;;;;;;16.60;13.35;;;;;;;20.93;100.00;101315.72;10375220;28;20046;-76
2022/08/25 23:14:42;;;;;;;21.75;14.40;;;;;;;20.80;100.00;101310.97;10390834;28;20038;-76
2022/08/25 23:19:42;;;;;;;16.75;12.68;;;;;;;20.83;100.00;101337.50;10387538;28;20064;-76